Time;durP1;ratioP1;P1;durP2;ratioP2;P2;SDS_P1;SDS_P2;PMS_P1;PMS_P2;Temp;Humidity;BMP_temperature;BMP_pressure;BME280_temperature;BME280_humidity;BME280_pressure;Samples;Min_cycle;Max_cycle;Signal;HPM_P1;HPM_P2
2023/11/23 00:00:11;;;;;;;39.97;20.93;;;6.30;94.70;;;;;;5095274;28;20162;-87
2023/11/23 00:02:38;;;;;;;31.90;18.07;;;6.40;94.80;;;;;;5077012;28;20175;-86
2023/11/23 00:05:05;;;;;;;41.93;21.03;;;6.50;94.80;;;;;;5095327;28;20170;-87
2023/11/23 00:07:31;;;;;;;39.77;20.70;;;6.50;94.90;;;;;;5095354;28;20256;-86
2023/11/23 00:09:56;;;;;;;42.33;23.83;;;6.60;94.90;;;;;;5077126;28;20735;-86
2023/11/23 00:12:22;;;;;;;37.50;20.47;;;6.60;94.80;;;;;;5077325;28;20419;-86
2023/11/23 00:14:47;;;;;;;46.77;25.67;;;6.60;94.80;;;;;;5077003;28;20216;-87
2023/11/23 00:17:15;;;;;;;32.83;17.47;;;6.70;94.80;;;;;;5095880;28;20183;-87
2023/11/23 00:19:40;;;;;;;37.63;19.27;;;6.70;94.90;;;;;;5077054;28;20182;-87
2023/11/23 00:22:06;;;;;;;34.17;18.27;;;6.80;94.90;;;;;;5095007;28;20171;-86
2023/11/23 00:24:32;;;;;;;37.30;22.40;;;6.90;94.90;;;;;;5077132;28;20178;-87
2023/11/23 00:26:58;;;;;;;37.67;18.83;;;6.90;94.90;;;;;;5095255;28;20227;-88
2023/11/23 00:29:23;;;;;;;46.43;23.57;;;6.90;94.80;;;;;;5076870;28;20202;-86
2023/11/23 00:31:49;;;;;;;39.73;19.70;;;6.90;94.90;;;;;;5095029;28;20646;-86
2023/11/23 00:34:14;;;;;;;42.73;22.60;;;6.90;94.90;;;;;;5076519;28;20178;-86
2023/11/23 00:36:40;;;;;;;42.13;21.00;;;7.00;94.90;;;;;;5094849;28;20715;-86
2023/11/23 00:39:09;;;;;;;45.20;24.77;;;7.00;94.90;;;;;;5076453;28;20237;-86
2023/11/23 00:41:38;;;;;;;37.43;22.93;;;7.10;94.90;;;;;;5094955;28;20197;-87
2023/11/23 00:44:04;;;;;;;44.80;27.17;;;7.10;94.80;;;;;;5094717;28;20174;-85
2023/11/23 00:46:30;;;;;;;45.73;26.70;;;7.10;94.80;;;;;;5094922;28;20221;-86
2023/11/23 00:48:55;;;;;;;38.10;22.50;;;7.10;94.90;;;;;;5094646;28;20701;-86
2023/11/23 00:51:21;;;;;;;49.13;26.73;;;7.10;94.90;;;;;;5076233;28;20258;-86
2023/11/23 00:53:47;;;;;;;27.37;17.00;;;7.10;95.00;;;;;;5076344;28;20197;-86
2023/11/23 00:56:15;;;;;;;36.87;22.57;;;7.10;95.10;;;;;;5076575;28;20206;-86
2023/11/23 00:58:40;;;;;;;48.37;25.63;;;7.20;95.10;;;;;;5075964;28;20213;-86
2023/11/23 01:01:06;;;;;;;48.20;25.67;;;7.20;95.10;;;;;;5076542;28;20646;-87
2023/11/23 01:03:32;;;;;;;43.27;23.80;;;7.20;95.20;;;;;;5094818;28;20649;-87
2023/11/23 01:05:57;;;;;;;;;;;7.30;95.30;;;;;;5094837;28;20065;-86
2023/11/23 01:08:23;;;;;;;42.27;24.80;;;7.20;95.30;;;;;;5094223;28;20413;-86
2023/11/23 01:10:48;;;;;;;50.20;29.63;;;7.30;95.30;;;;;;5094814;28;20163;-87
2023/11/23 01:13:14;;;;;;;46.65;26.45;;;7.30;95.30;;;;;;5094440;28;20147;-87
2023/11/23 01:15:39;;;;;;;38.77;23.80;;;7.30;95.30;;;;;;5076221;28;20197;-87
2023/11/23 01:18:05;;;;;;;;;;;7.40;95.30;;;;;;5094351;28;20269;-86
2023/11/23 01:20:30;;;;;;;48.30;27.95;;;7.50;95.30;;;;;;5076172;28;19911;-86
2023/11/23 01:22:56;;;;;;;47.53;25.73;;;7.50;95.30;;;;;;5094697;28;20178;-86
2023/11/23 01:25:22;;;;;;;37.53;23.90;;;7.60;95.30;;;;;;5094799;28;20611;-87
2023/11/23 01:27:47;;;;;;;;;;;7.60;95.30;;;;;;5094448;28;20195;-87
2023/11/23 01:30:12;;;;;;;;;;;7.60;95.30;;;;;;5094865;28;20002;-86
2023/11/23 01:32:38;;;;;;;55.00;26.90;;;7.60;95.40;;;;;;5094643;28;20187;-87
2023/11/23 01:35:04;;;;;;;44.00;25.47;;;7.60;95.40;;;;;;5094697;28;20769;-86
2023/11/23 01:37:30;;;;;;;48.03;27.67;;;7.70;95.50;;;;;;5094189;28;20259;-87
2023/11/23 01:39:55;;;;;;;35.53;22.83;;;7.70;95.50;;;;;;5094176;28;20174;-87
2023/11/23 01:42:21;;;;;;;52.33;29.10;;;7.80;95.50;;;;;;5094628;28;20166;-87
2023/11/23 01:44:46;;;;;;;;;;;7.80;95.50;;;;;;5094984;28;20193;-87
2023/11/23 01:47:13;;;;;;;;;;;7.80;95.60;;;;;;5094400;28;20326;-87
2023/11/23 01:49:43;;;;;;;;;;;7.80;95.60;;;;;;5094108;28;19934;-87
2023/11/23 01:52:09;;;;;;;;;;;7.90;95.70;;;;;;5094434;28;19910;-87
2023/11/23 01:54:34;;;;;;;;;;;7.80;95.60;;;;;;5094473;28;19904;-87
2023/11/23 01:57:00;;;;;;;;;;;7.80;95.70;;;;;;5094545;28;19915;-87
2023/11/23 01:59:26;;;;;;;;;;;7.80;95.70;;;;;;5094317;28;19965;-87
2023/11/23 02:01:52;;;;;;;;;;;7.80;95.70;;;;;;5094308;28;20283;-87
2023/11/23 02:04:17;;;;;;;45.13;25.47;;;7.90;95.70;;;;;;5075899;28;19904;-87
2023/11/23 02:06:43;;;;;;;36.57;19.37;;;8.00;95.80;;;;;;5075957;28;20194;-87
2023/11/23 02:09:09;;;;;;;52.20;26.30;;;8.00;95.70;;;;;;5075759;28;20248;-87
2023/11/23 02:11:35;;;;;;;49.17;26.33;;;8.00;95.70;;;;;;5097842;28;20163;-86
2023/11/23 02:14:03;;;;;;;38.87;23.17;;;8.00;95.70;;;;;;5079786;28;20175;-88
2023/11/23 02:16:28;;;;;;;47.07;26.70;;;8.10;95.70;;;;;;5097954;28;20254;-86
2023/11/23 02:18:54;;;;;;;47.80;28.10;;;8.00;95.60;;;;;;5097777;28;20250;-86
2023/11/23 02:21:20;;;;;;;46.00;28.37;;;8.00;95.60;;;;;;5079481;28;20178;-86
2023/11/23 02:23:45;;;;;;;52.93;28.60;;;8.00;95.70;;;;;;5079257;28;20251;-88
2023/11/23 02:26:11;;;;;;;55.10;31.40;;;8.00;95.70;;;;;;5098213;28;20171;-87
2023/11/23 02:28:37;;;;;;;61.07;33.97;;;8.00;95.70;;;;;;5079588;28;20281;-87
2023/11/23 02:31:02;;;;;;;53.00;30.93;;;8.00;95.70;;;;;;5097899;28;20641;-87
2023/11/23 02:33:28;;;;;;;58.33;32.93;;;8.10;95.70;;;;;;5079648;28;20192;-87
2023/11/23 02:35:54;;;;;;;53.50;31.10;;;8.10;95.70;;;;;;5097971;28;20178;-87
2023/11/23 02:38:19;;;;;;;55.67;34.20;;;8.10;95.80;;;;;;5079502;28;20286;-87
2023/11/23 02:40:45;;;;;;;59.00;35.57;;;8.10;95.70;;;;;;5079680;28;20170;-87
2023/11/23 02:43:10;;;;;;;43.83;26.27;;;8.10;95.80;;;;;;5079179;28;20167;-88
2023/11/23 02:45:36;;;;;;;53.53;29.43;;;8.10;95.80;;;;;;5079198;28;20528;-87
2023/11/23 02:48:04;;;;;;;45.20;27.40;;;8.20;95.80;;;;;;5097545;28;20273;-88
2023/11/23 02:50:30;;;;;;;62.80;35.43;;;8.20;95.90;;;;;;5098041;28;20170;-87
2023/11/23 02:52:55;;;;;;;57.60;31.33;;;8.20;95.90;;;;;;5079094;28;20175;-87
2023/11/23 02:55:21;;;;;;;64.97;36.80;;;8.20;95.90;;;;;;5097211;28;20515;-87
2023/11/23 02:57:47;;;;;;;66.97;34.33;;;8.20;96.00;;;;;;5079279;28;20245;-87
2023/11/23 03:00:12;;;;;;;52.37;27.87;;;8.30;96.10;;;;;;5079357;28;20556;-87
2023/11/23 03:02:38;;;;;;;40.63;25.63;;;8.30;96.10;;;;;;5097630;28;20174;-87
2023/11/23 03:05:04;;;;;;;60.17;32.47;;;8.40;96.10;;;;;;5098098;28;20175;-87
2023/11/23 03:07:30;;;;;;;55.50;30.80;;;8.40;96.10;;;;;;5097415;28;20264;-88
2023/11/23 03:09:56;;;;;;;48.17;28.63;;;8.40;96.10;;;;;;5097355;28;20281;-87
2023/11/23 03:12:21;;;;;;;31.33;20.00;;;8.50;96.20;;;;;;5097352;28;20249;-87
2023/11/23 03:14:47;;;;;;;55.13;30.50;;;8.60;96.20;;;;;;5097357;28;20171;-87
2023/11/23 03:17:12;;;;;;;43.53;23.20;;;8.60;96.20;;;;;;5097734;28;20190;-87
2023/11/23 03:19:38;;;;;;;43.07;23.30;;;8.70;96.20;;;;;;5096993;28;20763;-87
2023/11/23 03:22:05;;;;;;;44.03;22.20;;;8.70;96.20;;;;;;5096504;28;20190;-88
2023/11/23 03:24:30;;;;;;;50.43;29.03;;;8.80;96.20;;;;;;5078797;28;20283;-87
2023/11/23 03:26:56;;;;;;;47.63;28.60;;;8.80;96.10;;;;;;5097643;28;20199;-87
2023/11/23 03:29:22;;;;;;;39.87;24.00;;;8.80;96.10;;;;;;5096912;28;20222;-86
2023/11/23 03:31:48;;;;;;;37.60;24.03;;;8.80;96.10;;;;;;5097682;28;20285;-87
2023/11/23 03:34:14;;;;;;;35.17;20.37;;;8.90;96.10;;;;;;5097474;28;20171;-86
2023/11/23 03:36:40;;;;;;;43.40;26.17;;;8.90;96.00;;;;;;5096650;28;20190;-87
2023/11/23 03:39:06;;;;;;;41.17;25.03;;;8.90;96.00;;;;;;5097393;28;20174;-87
2023/11/23 03:41:33;;;;;;;38.97;24.73;;;8.90;96.10;;;;;;5079342;28;20202;-87
2023/11/23 03:43:58;;;;;;;43.97;25.90;;;9.00;96.00;;;;;;5078847;28;20186;-88
2023/11/23 03:46:24;;;;;;;41.50;23.83;;;9.00;96.00;;;;;;5097335;28;20179;-87
2023/11/23 03:48:49;;;;;;;33.70;20.43;;;9.00;96.00;;;;;;5078812;28;20225;-87
2023/11/23 03:51:15;;;;;;;24.23;13.13;;;9.10;96.10;;;;;;5097536;28;20180;-87
2023/11/23 03:53:41;;;;;;;36.50;22.10;;;9.10;96.10;;;;;;5097435;28;20171;-87
2023/11/23 03:56:07;;;;;;;37.40;23.10;;;9.10;96.00;;;;;;5079035;28;20179;-88
2023/11/23 03:58:32;;;;;;;45.30;24.43;;;9.10;96.00;;;;;;5097598;28;20674;-87
2023/11/23 04:01:00;;;;;;;36.33;20.90;;;9.10;96.10;;;;;;5097510;28;20175;-87
2023/11/23 04:03:25;;;;;;;31.07;19.17;;;9.20;96.10;;;;;;5097227;28;20175;-87
2023/11/23 04:05:51;;;;;;;27.77;14.33;;;9.30;96.10;;;;;;5097146;28;20735;-88
2023/11/23 04:08:16;;;;;;;32.33;18.97;;;9.30;96.10;;;;;;5079098;28;20206;-87
2023/11/23 04:10:42;;;;;;;19.40;13.83;;;9.30;96.00;;;;;;5079397;28;20262;-87
2023/11/23 04:13:08;;;;;;;45.13;24.10;;;9.40;96.00;;;;;;5078996;28;20170;-89
2023/11/23 04:15:33;;;;;;;36.50;21.30;;;9.30;96.00;;;;;;5097910;28;20639;-87
2023/11/23 04:17:59;;;;;;;39.80;21.53;;;9.30;96.00;;;;;;5097315;28;20191;-88
2023/11/23 04:20:24;;;;;;;31.53;17.90;;;9.40;96.00;;;;;;5097391;28;20220;-87
2023/11/23 04:22:50;;;;;;;33.33;20.77;;;9.40;96.00;;;;;;5096864;28;20260;-87
2023/11/23 04:25:15;;;;;;;36.53;20.83;;;9.50;96.10;;;;;;5079089;28;20257;-87
2023/11/23 04:27:41;;;;;;;32.67;19.97;;;9.50;96.10;;;;;;5097270;28;20197;-87
2023/11/23 04:30:07;;;;;;;31.83;18.77;;;9.50;96.10;;;;;;5097159;28;20575;-87
2023/11/23 04:32:33;;;;;;;36.70;20.30;;;9.60;96.10;;;;;;5077968;28;20202;-87
2023/11/23 04:34:59;;;;;;;26.20;16.97;;;9.50;96.10;;;;;;5097379;28;20241;-87
2023/11/23 04:37:25;;;;;;;31.63;19.87;;;9.60;96.10;;;;;;5097064;28;20713;-87
2023/11/23 04:39:51;;;;;;;30.60;19.03;;;9.60;96.10;;;;;;5097585;28;20179;-88
2023/11/23 04:42:16;;;;;;;36.03;16.30;;;9.60;96.10;;;;;;5097149;28;20178;-87
2023/11/23 04:44:42;;;;;;;33.83;19.87;;;9.70;96.10;;;;;;5097618;28;20186;-89
2023/11/23 04:47:08;;;;;;;38.10;20.73;;;9.70;96.10;;;;;;5078682;28;20214;-87
2023/11/23 04:49:33;;;;;;;30.67;16.80;;;9.70;96.10;;;;;;5097397;28;20716;-88
2023/11/23 04:51:59;;;;;;;37.80;20.17;;;9.70;96.10;;;;;;5078705;28;20269;-88
2023/11/23 04:54:24;;;;;;;23.00;13.93;;;9.70;96.10;;;;;;5078846;28;20185;-87
2023/11/23 04:56:51;;;;;;;35.33;18.30;;;9.80;96.00;;;;;;5096664;28;20199;-87
2023/11/23 04:59:17;;;;;;;24.97;13.47;;;9.80;95.90;;;;;;5097125;28;20166;-87
2023/11/23 05:01:43;;;;;;;34.53;19.30;;;9.80;96.00;;;;;;5097539;28;20181;-87
2023/11/23 05:04:08;;;;;;;29.70;14.67;;;9.80;95.90;;;;;;5096977;28;20174;-88
2023/11/23 05:06:35;;;;;;;31.53;17.30;;;9.80;95.90;;;;;;5096934;28;21230;-87
2023/11/23 05:09:01;;;;;;;28.20;13.63;;;9.80;95.80;;;;;;5079075;28;20708;-88
2023/11/23 05:11:28;;;;;;;30.43;16.67;;;9.80;95.80;;;;;;5096883;28;20166;-87
2023/11/23 05:13:56;;;;;;;31.27;15.87;;;9.80;95.80;;;;;;5078936;28;20171;-88
2023/11/23 05:16:21;;;;;;;32.23;14.40;;;9.80;95.70;;;;;;5096989;28;20174;-88
2023/11/23 05:18:47;;;;;;;27.40;9.97;;;9.90;95.70;;;;;;5077761;28;20182;-87
2023/11/23 05:21:12;;;;;;;29.73;12.23;;;9.90;95.70;;;;;;5075693;28;20175;-87
2023/11/23 05:23:38;;;;;;;28.40;10.87;;;10.00;95.60;;;;;;5093936;28;20175;-87
2023/11/23 05:26:04;;;;;;;28.40;10.97;;;9.90;95.50;;;;;;5093739;28;20175;-87
2023/11/23 05:28:30;;;;;;;16.53;7.40;;;10.00;95.50;;;;;;5093787;28;20371;-87
2023/11/23 05:30:55;;;;;;;16.13;8.77;;;10.00;95.50;;;;;;5093448;28;20522;-87
2023/11/23 05:33:21;;;;;;;19.90;10.57;;;10.00;95.40;;;;;;5093682;28;20661;-88
2023/11/23 05:35:47;;;;;;;35.17;8.27;;;10.00;95.40;;;;;;5075585;28;20187;-87
2023/11/23 05:38:12;;;;;;;23.30;7.40;;;10.00;95.40;;;;;;5075151;28;20198;-87
2023/11/23 05:40:38;;;;;;;21.57;8.77;;;10.10;95.30;;;;;;5075198;28;20189;-87
2023/11/23 05:43:03;;;;;;;15.63;6.63;;;10.00;95.30;;;;;;5075303;28;20192;-87
2023/11/23 05:45:30;;;;;;;18.17;5.70;;;10.10;95.30;;;;;;5093488;28;20177;-87
2023/11/23 05:47:56;;;;;;;17.07;5.53;;;10.10;95.30;;;;;;5093064;28;20202;-86
2023/11/23 05:50:21;;;;;;;17.57;6.47;;;10.10;95.30;;;;;;5075221;28;20188;-87
2023/11/23 05:52:47;;;;;;;14.53;5.00;;;10.10;95.20;;;;;;5093275;28;20179;-87
2023/11/23 05:55:15;;;;;;;24.30;5.00;;;10.20;95.10;;;;;;5075098;28;20220;-87
2023/11/23 05:57:40;;;;;;;26.93;6.13;;;10.10;95.10;;;;;;5075706;28;20554;-87
2023/11/23 06:00:07;;;;;;;25.83;7.43;;;10.20;95.10;;;;;;5075163;28;20178;-87
2023/11/23 06:02:33;;;;;;;22.07;6.13;;;10.10;95.10;;;;;;5093243;28;20167;-87
2023/11/23 06:04:58;;;;;;;14.40;5.20;;;10.20;95.10;;;;;;5093041;28;20209;-87
2023/11/23 06:07:24;;;;;;;24.57;6.50;;;10.20;95.10;;;;;;5075066;28;20206;-87
2023/11/23 06:09:51;;;;;;;21.47;6.37;;;10.20;95.10;;;;;;5075099;28;20307;-87
2023/11/23 06:12:16;;;;;;;17.60;6.10;;;10.20;95.00;;;;;;5075045;28;20654;-87
2023/11/23 06:14:42;;;;;;;14.70;5.77;;;10.30;95.00;;;;;;5093070;28;20281;-87
2023/11/23 06:17:10;;;;;;;21.47;5.77;;;10.30;95.00;;;;;;5092970;28;20253;-87
2023/11/23 06:19:36;;;;;;;20.27;6.53;;;10.30;95.00;;;;;;5074963;28;20170;-87
2023/11/23 06:22:02;;;;;;;24.20;6.07;;;10.30;94.90;;;;;;5093021;28;20173;-87
2023/11/23 06:24:28;;;;;;;20.60;5.17;;;10.40;94.90;;;;;;5092860;28;20249;-87
2023/11/23 06:26:53;;;;;;;22.73;6.37;;;10.40;94.70;;;;;;5092791;28;20186;-88
2023/11/23 06:29:19;;;;;;;16.53;6.07;;;10.40;94.50;;;;;;5074846;28;20202;-87
2023/11/23 06:31:44;;;;;;;26.87;5.50;;;10.50;94.30;;;;;;5093077;28;20174;-87
2023/11/23 06:34:10;;;;;;;31.23;6.53;;;10.60;94.30;;;;;;5074801;28;20179;-87
2023/11/23 06:36:38;;;;;;;14.20;5.10;;;10.50;94.30;;;;;;5092800;28;20191;-87
2023/11/23 06:39:04;;;;;;;20.17;4.87;;;10.60;94.20;;;;;;5093210;28;20510;-87
2023/11/23 06:41:29;;;;;;;19.43;3.90;;;10.60;94.20;;;;;;5093571;28;20178;-87
2023/11/23 06:43:55;;;;;;;21.20;4.80;;;10.60;93.90;;;;;;5074763;28;20611;-87
2023/11/23 06:46:20;;;;;;;22.57;5.03;;;10.60;94.00;;;;;;5074752;28;20178;-87
2023/11/23 06:48:46;;;;;;;21.93;6.80;;;10.60;93.90;;;;;;5093097;28;20202;-87
2023/11/23 06:51:12;;;;;;;21.13;4.40;;;10.60;94.00;;;;;;5092675;28;20268;-87
2023/11/23 06:53:43;;;;;;;20.93;4.70;;;10.60;93.70;;;;;;5074799;28;20157;-87
2023/11/23 06:56:12;;;;;;;;;;;10.70;93.40;;;;;;5094689;28;20147;-87
2023/11/23 06:58:37;;;;;;;;;;;10.70;93.20;;;;;;5078538;28;19904;-87
2023/11/23 07:01:03;;;;;;;;;;;10.80;93.00;;;;;;5096818;28;19911;-87
2023/11/23 07:03:29;;;;;;;;;;;10.80;92.90;;;;;;5078592;28;20031;-87
2023/11/23 07:05:54;;;;;;;;;;;10.70;93.00;;;;;;5078614;28;19957;-87
2023/11/23 07:08:19;;;;;;;;;;;10.80;93.00;;;;;;5096623;28;20111;-87
2023/11/23 07:10:45;;;;;;;;;;;10.80;92.60;;;;;;5096288;28;19911;-88
2023/11/23 07:13:11;;;;;;;;;;;10.80;92.60;;;;;;5096562;28;19962;-87
2023/11/23 07:15:36;;;;;;;24.33;4.87;;;10.80;92.60;;;;;;5096369;28;20211;-87
2023/11/23 07:18:02;;;;;;;19.93;4.70;;;10.90;92.20;;;;;;5095767;28;20206;-87
2023/11/23 07:20:27;;;;;;;21.40;4.23;;;10.90;92.20;;;;;;5077798;28;20174;-87
2023/11/23 07:22:53;;;;;;;22.40;4.67;;;10.90;92.10;;;;;;5095908;28;20170;-87
2023/11/23 07:25:19;;;;;;;17.87;5.50;;;10.80;92.20;;;;;;5095868;28;20177;-87
2023/11/23 07:27:45;;;;;;;15.17;4.93;;;10.90;92.10;;;;;;5077597;28;20194;-87
2023/11/23 07:30:11;;;;;;;17.73;4.67;;;11.00;91.80;;;;;;5095948;28;20031;-87
2023/11/23 07:32:36;;;;;;;15.40;4.90;;;11.00;91.70;;;;;;5095629;28;20567;-88
2023/11/23 07:35:03;;;;;;;9.53;3.90;;;11.00;91.70;;;;;;5095581;28;20212;-87
2023/11/23 07:37:30;;;;;;;;;;;10.90;91.80;;;;;;5095808;28;20562;-87
2023/11/23 07:39:56;;;;;;;;;;;11.00;91.70;;;;;;5096027;28;19954;-87
2023/11/23 07:42:22;;;;;;;;;;;11.00;91.80;;;;;;5077780;28;19911;-87
2023/11/23 07:44:48;;;;;;;;;;;11.00;91.80;;;;;;5077751;28;20380;-87
2023/11/23 07:47:14;;;;;;;;;;;10.90;91.70;;;;;;5095918;28;19904;-87
2023/11/23 07:49:45;;;;;;;15.13;4.60;;;11.00;91.60;;;;;;5095545;28;19912;-87
2023/11/23 07:52:14;;;;;;;16.63;4.23;;;11.00;91.50;;;;;;5095349;28;20151;-87
2023/11/23 07:54:39;;;;;;;14.20;6.23;;;11.00;91.40;;;;;;5095369;28;20163;-87
2023/11/23 07:57:05;;;;;;;;;;;11.00;91.40;;;;;;5077411;28;20110;-87
2023/11/23 07:59:34;;;;;;;13.55;6.10;;;11.00;91.40;;;;;;5077384;28;20010;-87
2023/11/23 08:02:01;;;;;;;24.60;7.95;;;11.00;91.50;;;;;;5077127;28;20204;-87
2023/11/23 08:04:26;;;;;;;15.70;5.87;;;11.10;91.30;;;;;;5077160;28;20189;-88
2023/11/23 08:06:52;;;;;;;19.00;5.70;;;11.00;91.30;;;;;;5095700;28;20661;-87
2023/11/23 08:09:20;;;;;;;14.30;7.20;;;11.00;91.30;;;;;;5076879;28;20203;-87
2023/11/23 08:11:47;;;;;;;11.43;5.03;;;11.00;91.50;;;;;;5076644;28;20084;-87
2023/11/23 08:14:13;;;;;;;;;;;11.10;91.00;;;;;;5077514;28;20175;-88
2023/11/23 08:16:38;;;;;;;23.10;6.80;;;11.00;91.10;;;;;;5077378;28;20455;-87
2023/11/23 08:19:04;;;;;;;14.20;6.50;;;11.00;91.20;;;;;;5076930;28;20066;-87
2023/11/23 08:21:30;;;;;;;24.80;6.47;;;11.10;91.10;;;;;;5094978;28;20185;-87
2023/11/23 08:23:55;;;;;;;16.07;6.50;;;11.00;91.30;;;;;;5095040;28;20171;-88
2023/11/23 08:26:21;;;;;;;26.03;5.50;;;11.00;91.40;;;;;;5076380;28;20174;-87
2023/11/23 08:28:49;;;;;;;21.57;5.73;;;11.00;91.70;;;;;;5076656;28;20213;-89
2023/11/23 08:31:15;;;;;;;23.63;4.97;;;11.00;91.80;;;;;;5077549;28;20197;-88
2023/11/23 08:33:40;;;;;;;16.23;3.47;;;11.00;91.90;;;;;;5094798;28;20638;-87
2023/11/23 08:36:06;;;;;;;18.47;5.63;;;11.00;92.00;;;;;;5076651;28;20170;-87
2023/11/23 08:38:32;;;;;;;16.37;6.30;;;10.90;92.10;;;;;;5094387;28;20214;-87
2023/11/23 08:41:00;;;;;;;23.40;5.33;;;10.90;92.30;;;;;;5077140;28;20507;-87
2023/11/23 08:43:25;;;;;;;22.37;5.00;;;11.00;92.10;;;;;;5076519;28;20189;-88
2023/11/23 08:45:51;;;;;;;22.43;5.07;;;11.00;91.80;;;;;;5094560;28;20246;-87
2023/11/23 08:48:17;;;;;;;21.43;6.67;;;11.00;91.80;;;;;;5075976;28;20245;-87
2023/11/23 08:50:42;;;;;;;16.70;5.73;;;10.90;92.10;;;;;;5076147;28;20185;-87
2023/11/23 08:53:08;;;;;;;23.13;4.77;;;10.90;92.30;;;;;;5094297;28;20252;-88
2023/11/23 08:55:33;;;;;;;;;;;10.90;92.10;;;;;;5076552;28;20174;-88
2023/11/23 08:57:59;;;;;;;;;;;10.90;92.10;;;;;;5094779;28;19975;-88
2023/11/23 09:00:25;;;;;;;;;;;10.80;92.20;;;;;;5076372;28;19974;-88
2023/11/23 09:02:53;;;;;;;16.07;4.90;;;10.90;92.30;;;;;;5094319;28;19922;-87
2023/11/23 09:05:19;;;;;;;18.05;5.80;;;10.90;92.20;;;;;;5075917;28;20262;-88
2023/11/23 09:07:44;;;;;;;8.47;3.20;;;10.90;92.10;;;;;;5075838;28;20119;-87
2023/11/23 09:10:10;;;;;;;32.50;4.60;;;10.90;92.00;;;;;;5076540;28;20211;-87
2023/11/23 09:12:36;;;;;;;18.73;4.60;;;10.90;91.90;;;;;;5076257;28;20178;-87
2023/11/23 09:15:04;;;;;;;17.63;3.93;;;11.00;92.00;;;;;;5093912;28;20231;-87
2023/11/23 09:17:33;;;;;;;18.83;4.47;;;10.90;92.00;;;;;;5075797;28;20198;-87
2023/11/23 09:19:58;;;;;;;13.87;4.80;;;11.00;91.60;;;;;;5093266;28;20265;-87
2023/11/23 09:22:24;;;;;;;11.60;3.40;;;11.00;91.70;;;;;;5093807;28;20206;-88
2023/11/23 09:24:50;;;;;;;14.80;4.33;;;11.00;91.60;;;;;;5094418;28;20367;-87
2023/11/23 09:27:16;;;;;;;18.90;4.77;;;11.10;91.30;;;;;;5075441;28;20194;-88
2023/11/23 09:29:41;;;;;;;15.83;3.30;;;11.10;91.50;;;;;;5075801;28;20209;-88
2023/11/23 09:32:08;;;;;;;13.10;5.70;;;11.20;91.30;;;;;;5093524;28;20253;-87
2023/11/23 09:34:34;;;;;;;14.23;4.03;;;11.20;91.00;;;;;;5093815;28;20167;-88
2023/11/23 09:37:00;;;;;;;8.27;3.87;;;11.20;91.00;;;;;;5093477;28;20198;-87
2023/11/23 09:39:29;;;;;;;14.83;4.50;;;11.20;91.00;;;;;;5093895;28;20179;-88
2023/11/23 09:41:57;;;;;;;20.67;5.03;;;11.20;90.90;;;;;;5075812;28;20219;-87
2023/11/23 09:44:26;;;;;;;12.50;3.90;;;11.20;90.90;;;;;;5093481;28;20662;-88
2023/11/23 09:46:53;;;;;;;10.97;5.30;;;11.20;90.90;;;;;;5093253;28;20199;-87
2023/11/23 09:49:19;;;;;;;16.87;6.40;;;11.20;90.90;;;;;;5093547;28;20213;-88
2023/11/23 09:51:48;;;;;;;21.80;6.27;;;11.30;90.60;;;;;;5093388;28;20163;-88
2023/11/23 09:54:17;;;;;;;24.40;7.77;;;11.20;90.90;;;;;;5093220;28;20163;-88
2023/11/23 09:56:43;;;;;;;21.00;5.00;;;11.30;90.80;;;;;;5093252;28;20736;-88
2023/11/23 09:59:09;;;;;;;24.00;7.37;;;11.30;90.50;;;;;;5075405;28;20217;-87
2023/11/23 10:01:37;;;;;;;;;;;11.30;90.60;;;;;;5093964;28;20166;-87
2023/11/23 10:04:04;;;;;;;;;;;11.30;90.40;;;;;;5094030;28;20002;-87
2023/11/23 10:06:29;;;;;;;;;;;11.40;90.10;;;;;;5093775;28;19908;-87
2023/11/23 10:08:58;;;;;;;15.70;6.30;;;11.40;90.00;;;;;;5075889;28;19961;-86
2023/11/23 10:11:26;;;;;;;19.50;6.65;;;11.40;90.10;;;;;;5075749;28;20174;-86
2023/11/23 10:13:51;;;;;;;15.40;6.05;;;11.40;89.90;;;;;;5075498;28;20365;-87
2023/11/23 10:16:17;;;;;;;13.75;6.15;;;11.50;89.70;;;;;;5093743;28;19939;-87
2023/11/23 10:18:42;;;;;;;13.97;5.50;;;11.50;89.60;;;;;;5075510;28;19950;-87
2023/11/23 10:21:11;;;;;;;17.07;4.67;;;11.60;89.50;;;;;;5075572;28;20212;-87
2023/11/23 10:23:39;;;;;;;12.23;4.00;;;11.50;89.60;;;;;;5093434;28;20181;-87
2023/11/23 10:26:06;;;;;;;22.07;7.93;;;11.60;89.30;;;;;;5075065;28;20174;-87
2023/11/23 10:28:31;;;;;;;;;;;11.70;89.00;;;;;;5075315;28;20289;-87
2023/11/23 10:31:02;;;;;;;18.90;6.00;;;11.70;89.10;;;;;;5094794;28;19943;-87
2023/11/23 10:33:29;;;;;;;16.00;4.53;;;11.70;89.10;;;;;;5078672;28;20205;-87
2023/11/23 10:35:55;;;;;;;6.97;3.87;;;11.70;88.70;;;;;;5078630;28;20182;-87
2023/11/23 10:38:23;;;;;;;9.00;6.63;;;11.80;88.70;;;;;;5096677;28;20571;-88
2023/11/23 10:40:49;;;;;;;13.03;6.40;;;11.70;89.10;;;;;;5078956;28;20178;-88
2023/11/23 10:43:17;;;;;;;21.63;6.40;;;11.80;88.70;;;;;;5097143;28;20550;-88
2023/11/23 10:45:44;;;;;;;16.40;4.60;;;11.70;88.90;;;;;;5096708;28;20169;-87
2023/11/23 10:48:14;;;;;;;18.17;5.07;;;11.80;88.60;;;;;;5096756;28;20233;-87
2023/11/23 10:50:39;;;;;;;;;;;11.70;89.00;;;;;;5078817;28;20171;-87
2023/11/23 10:53:06;;;;;;;14.27;4.30;;;11.70;89.00;;;;;;5096674;28;19954;-87
2023/11/23 10:55:31;;;;;;;;;;;11.70;89.00;;;;;;5097251;28;20228;-87
2023/11/23 10:58:11;;;;;;;15.83;5.80;;;11.70;89.00;;;;;;5096955;28;20176;-87
2023/11/23 11:00:37;;;;;;;;;;;11.80;88.90;;;;;;5097449;28;20142;-87
2023/11/23 11:03:09;;;;;;;12.73;5.00;;;11.70;88.80;;;;;;5078642;28;19999;-87
2023/11/23 11:05:36;;;;;;;13.73;4.87;;;11.80;88.50;;;;;;5096485;28;20102;-87
2023/11/23 11:08:07;;;;;;;17.80;5.07;;;11.80;88.40;;;;;;5096321;28;20194;-87
2023/11/23 11:10:46;;;;;;;15.10;4.23;;;11.80;88.70;;;;;;5096566;28;20143;-88
2023/11/23 11:13:14;;;;;;;20.33;5.00;;;11.90;88.30;;;;;;5078069;28;20201;-87
2023/11/23 11:15:50;;;;;;;18.13;5.67;;;11.80;88.50;;;;;;5078144;28;20174;-86
2023/11/23 11:18:24;;;;;;;16.00;6.17;;;11.80;88.40;;;;;;5096426;28;20683;-87
2023/11/23 11:21:07;;;;;;;21.53;5.40;;;11.80;88.50;;;;;;5078540;28;20170;-87
2023/11/23 11:23:52;;;;;;;12.37;4.77;;;11.80;88.80;;;;;;5078422;28;20717;-88
2023/11/23 11:26:18;;;;;;;13.90;6.37;;;11.90;88.40;;;;;;5078135;28;20204;-88
2023/11/23 11:29:05;;;;;;;26.10;5.77;;;11.90;88.40;;;;;;5077854;28;20195;-86
2023/11/23 11:31:42;;;;;;;18.63;5.07;;;11.80;88.70;;;;;;5096251;28;20154;-87
2023/11/23 11:34:21;;;;;;;24.47;6.13;;;11.90;88.60;;;;;;5096187;28;20505;-90
2023/11/23 11:37:01;;;;;;;23.87;7.53;;;11.80;88.70;;;;;;5077551;28;20213;-88
2023/11/23 11:39:35;;;;;;;;;;;11.80;88.90;;;;;;5078357;28;20174;-87
2023/11/23 11:42:01;;;;;;;;;;;11.80;88.80;;;;;;5078872;28;19927;-87
2023/11/23 11:44:30;;;;;;;21.43;8.17;;;11.80;89.00;;;;;;5095854;28;20357;-88
2023/11/23 11:46:56;;;;;;;20.87;7.23;;;11.80;89.00;;;;;;5077601;28;20693;-87
2023/11/23 11:49:25;;;;;;;20.43;8.40;;;11.80;89.10;;;;;;5095947;28;20654;-87
2023/11/23 11:51:51;;;;;;;23.10;8.27;;;11.90;88.90;;;;;;5095537;28;20253;-88
2023/11/23 11:54:21;;;;;;;24.13;6.60;;;11.80;89.10;;;;;;5095466;28;20194;-88
2023/11/23 11:56:48;;;;;;;25.73;8.00;;;11.80;89.00;;;;;;5095109;28;20186;-89
2023/11/23 11:59:17;;;;;;;28.70;7.87;;;11.80;89.20;;;;;;5095308;28;20175;-87
2023/11/23 12:01:46;;;;;;;26.47;7.67;;;11.80;88.90;;;;;;5077413;28;20553;-87
2023/11/23 12:04:19;;;;;;;24.63;7.47;;;11.80;89.30;;;;;;5077423;28;20179;-88
2023/11/23 12:06:45;;;;;;;;;;;11.80;89.30;;;;;;5077711;28;20174;-88
2023/11/23 12:09:17;;;;;;;;;;;11.80;89.20;;;;;;5095663;28;19912;-88
2023/11/23 12:11:43;;;;;;;;;;;11.90;88.80;;;;;;5096106;28;19938;-88
2023/11/23 12:14:09;;;;;;;;;;;11.90;89.00;;;;;;5095770;28;19904;-88
2023/11/23 12:16:35;;;;;;;;;;;11.90;89.00;;;;;;5095610;28;20314;-87
2023/11/23 12:19:00;;;;;;;;;;;11.80;89.20;;;;;;5095810;28;19951;-87
2023/11/23 12:21:26;;;;;;;;;;;11.80;89.30;;;;;;5095548;28;20177;-87
2023/11/23 12:23:52;;;;;;;15.43;4.53;;;11.70;89.70;;;;;;5095266;28;19907;-87
2023/11/23 12:26:19;;;;;;;18.47;5.60;;;11.80;90.00;;;;;;5076564;28;20186;-86
2023/11/23 12:28:49;;;;;;;;;;;11.70;90.20;;;;;;5077716;28;20235;-87
2023/11/23 12:31:14;;;;;;;;;;;11.70;90.50;;;;;;5095251;28;19904;-87
2023/11/23 12:33:40;;;;;;;;;;;11.70;90.70;;;;;;5094875;28;19952;-88
2023/11/23 12:36:05;;;;;;;;;;;11.70;91.00;;;;;;5094557;28;19922;-87
2023/11/23 12:38:31;;;;;;;15.90;4.37;;;11.60;91.20;;;;;;5094285;28;20264;-86
2023/11/23 12:40:57;;;;;;;23.87;5.23;;;11.60;91.70;;;;;;5094819;28;20171;-88
2023/11/23 12:43:22;;;;;;;16.93;4.17;;;11.60;92.10;;;;;;5094608;28;20178;-87
2023/11/23 12:45:49;;;;;;;15.83;4.63;;;11.50;92.70;;;;;;5076458;28;25084;-87
2023/11/23 12:48:15;;;;;;;20.93;4.43;;;11.40;93.20;;;;;;5076067;28;20263;-87